sensor_id;sensor_type;location;lat;lon;timestamp;temperature;humidity
14471;DHT22;7321;50.802;4.336;2023-07-24T00:01:19;20.30;99.90
14471;DHT22;7321;50.802;4.336;2023-07-24T00:03:45;20.40;99.90
14471;DHT22;7321;50.802;4.336;2023-07-24T00:06:11;20.20;99.90
14471;DHT22;7321;50.802;4.336;2023-07-24T00:08:38;20.30;99.90
14471;DHT22;7321;50.802;4.336;2023-07-24T00:11:07;20.30;99.90
14471;DHT22;7321;50.802;4.336;2023-07-24T00:13:33;20.30;99.90
14471;DHT22;7321;50.802;4.336;2023-07-24T00:15:59;20.40;99.90
14471;DHT22;7321;50.802;4.336;2023-07-24T00:18:25;20.40;99.90
14471;DHT22;7321;50.802;4.336;2023-07-24T00:20:51;20.40;99.90
14471;DHT22;7321;50.802;4.336;2023-07-24T00:23:17;20.30;99.90
14471;DHT22;7321;50.802;4.336;2023-07-24T00:25:42;20.50;99.90
14471;DHT22;7321;50.802;4.336;2023-07-24T00:28:08;20.50;99.90
14471;DHT22;7321;50.802;4.336;2023-07-24T00:30:34;20.50;99.90
14471;DHT22;7321;50.802;4.336;2023-07-24T00:33:00;20.50;99.90
14471;DHT22;7321;50.802;4.336;2023-07-24T00:35:26;20.50;99.90
14471;DHT22;7321;50.802;4.336;2023-07-24T00:37:52;20.50;99.90
14471;DHT22;7321;50.802;4.336;2023-07-24T00:40:18;20.40;99.90
14471;DHT22;7321;50.802;4.336;2023-07-24T00:42:48;20.30;99.90
14471;DHT22;7321;50.802;4.336;2023-07-24T00:45:14;20.30;99.90
14471;DHT22;7321;50.802;4.336;2023-07-24T00:47:41;20.30;99.90
14471;DHT22;7321;50.802;4.336;2023-07-24T00:50:08;20.30;99.90
14471;DHT22;7321;50.802;4.336;2023-07-24T00:52:35;20.30;99.90
14471;DHT22;7321;50.802;4.336;2023-07-24T00:55:01;20.40;99.90
14471;DHT22;7321;50.802;4.336;2023-07-24T00:57:27;20.50;99.90
14471;DHT22;7321;50.802;4.336;2023-07-24T00:59:54;20.40;99.90
14471;DHT22;7321;50.802;4.336;2023-07-24T01:02:20;20.20;99.90
14471;DHT22;7321;50.802;4.336;2023-07-24T01:04:46;20.20;99.90
14471;DHT22;7321;50.802;4.336;2023-07-24T01:07:12;20.00;99.90
14471;DHT22;7321;50.802;4.336;2023-07-24T01:09:38;20.00;99.90
14471;DHT22;7321;50.802;4.336;2023-07-24T01:12:19;20.10;99.90
14471;DHT22;7321;50.802;4.336;2023-07-24T01:14:58;20.10;99.90
14471;DHT22;7321;50.802;4.336;2023-07-24T01:17:28;20.10;99.90
14471;DHT22;7321;50.802;4.336;2023-07-24T01:19:58;19.90;99.90
14471;DHT22;7321;50.802;4.336;2023-07-24T01:22:34;19.70;99.90
14471;DHT22;7321;50.802;4.336;2023-07-24T01:25:28;19.60;99.90
14471;DHT22;7321;50.802;4.336;2023-07-24T01:27:56;19.60;99.90
14471;DHT22;7321;50.802;4.336;2023-07-24T01:30:22;19.50;99.90
14471;DHT22;7321;50.802;4.336;2023-07-24T01:32:48;19.50;99.90
14471;DHT22;7321;50.802;4.336;2023-07-24T01:35:14;19.60;99.90
14471;DHT22;7321;50.802;4.336;2023-07-24T01:37:42;19.50;99.90
14471;DHT22;7321;50.802;4.336;2023-07-24T01:40:09;19.60;99.90
14471;DHT22;7321;50.802;4.336;2023-07-24T01:42:35;19.50;99.90
14471;DHT22;7321;50.802;4.336;2023-07-24T01:45:03;19.50;99.90
14471;DHT22;7321;50.802;4.336;2023-07-24T01:47:29;19.40;99.90
14471;DHT22;7321;50.802;4.336;2023-07-24T01:49:56;19.40;99.90
14471;DHT22;7321;50.802;4.336;2023-07-24T01:52:22;19.40;99.90
14471;DHT22;7321;50.802;4.336;2023-07-24T01:54:48;19.20;99.90
14471;DHT22;7321;50.802;4.336;2023-07-24T01:57:14;19.30;99.90
14471;DHT22;7321;50.802;4.336;2023-07-24T01:59:39;19.30;99.90
14471;DHT22;7321;50.802;4.336;2023-07-24T02:02:05;19.20;99.90
14471;DHT22;7321;50.802;4.336;2023-07-24T02:04:31;19.20;99.90
14471;DHT22;7321;50.802;4.336;2023-07-24T02:06:57;19.30;99.90
14471;DHT22;7321;50.802;4.336;2023-07-24T02:09:23;19.40;99.90
14471;DHT22;7321;50.802;4.336;2023-07-24T02:11:49;19.50;99.90
14471;DHT22;7321;50.802;4.336;2023-07-24T02:14:15;19.50;99.90
14471;DHT22;7321;50.802;4.336;2023-07-24T02:16:42;19.60;99.90
14471;DHT22;7321;50.802;4.336;2023-07-24T02:19:08;19.70;99.90
14471;DHT22;7321;50.802;4.336;2023-07-24T02:21:34;19.70;99.90
14471;DHT22;7321;50.802;4.336;2023-07-24T02:23:59;19.70;99.90
14471;DHT22;7321;50.802;4.336;2023-07-24T02:26:25;19.80;99.90
14471;DHT22;7321;50.802;4.336;2023-07-24T02:28:51;19.80;99.90
14471;DHT22;7321;50.802;4.336;2023-07-24T02:31:17;19.70;99.90
14471;DHT22;7321;50.802;4.336;2023-07-24T02:33:43;19.80;99.90
14471;DHT22;7321;50.802;4.336;2023-07-24T02:36:08;19.90;99.90
14471;DHT22;7321;50.802;4.336;2023-07-24T02:38:34;19.90;99.90
14471;DHT22;7321;50.802;4.336;2023-07-24T02:41:00;19.90;99.90
14471;DHT22;7321;50.802;4.336;2023-07-24T02:43:26;19.90;99.90
14471;DHT22;7321;50.802;4.336;2023-07-24T02:45:52;19.80;99.90
14471;DHT22;7321;50.802;4.336;2023-07-24T02:48:17;19.50;99.90
14471;DHT22;7321;50.802;4.336;2023-07-24T02:50:43;19.50;99.90
14471;DHT22;7321;50.802;4.336;2023-07-24T02:53:09;19.20;99.90
14471;DHT22;7321;50.802;4.336;2023-07-24T02:55:36;19.10;99.90
14471;DHT22;7321;50.802;4.336;2023-07-24T02:58:02;19.10;99.90
14471;DHT22;7321;50.802;4.336;2023-07-24T03:00:27;19.00;99.90
14471;DHT22;7321;50.802;4.336;2023-07-24T03:02:53;19.00;99.90
14471;DHT22;7321;50.802;4.336;2023-07-24T03:05:19;18.90;99.90
14471;DHT22;7321;50.802;4.336;2023-07-24T03:07:45;18.80;99.90
14471;DHT22;7321;50.802;4.336;2023-07-24T03:10:11;18.70;99.90
14471;DHT22;7321;50.802;4.336;2023-07-24T03:12:37;18.60;99.90
14471;DHT22;7321;50.802;4.336;2023-07-24T03:15:03;18.60;99.90
14471;DHT22;7321;50.802;4.336;2023-07-24T03:17:29;18.30;99.90
14471;DHT22;7321;50.802;4.336;2023-07-24T03:19:54;18.20;99.90
14471;DHT22;7321;50.802;4.336;2023-07-24T03:22:21;18.10;99.90
14471;DHT22;7321;50.802;4.336;2023-07-24T03:24:46;17.90;99.90
14471;DHT22;7321;50.802;4.336;2023-07-24T03:27:12;17.90;99.90
14471;DHT22;7321;50.802;4.336;2023-07-24T03:29:38;18.00;99.90
14471;DHT22;7321;50.802;4.336;2023-07-24T03:32:07;18.00;99.90
14471;DHT22;7321;50.802;4.336;2023-07-24T03:34:32;17.70;99.90
14471;DHT22;7321;50.802;4.336;2023-07-24T03:36:58;17.70;99.90
14471;DHT22;7321;50.802;4.336;2023-07-24T03:39:24;17.70;99.90
14471;DHT22;7321;50.802;4.336;2023-07-24T03:41:50;17.80;99.90
14471;DHT22;7321;50.802;4.336;2023-07-24T03:44:15;17.80;99.90
14471;DHT22;7321;50.802;4.336;2023-07-24T03:46:41;17.80;99.90
14471;DHT22;7321;50.802;4.336;2023-07-24T03:49:07;18.00;99.90
14471;DHT22;7321;50.802;4.336;2023-07-24T03:51:33;18.00;99.90
14471;DHT22;7321;50.802;4.336;2023-07-24T03:53:59;18.00;99.90
14471;DHT22;7321;50.802;4.336;2023-07-24T03:56:24;18.20;99.90
14471;DHT22;7321;50.802;4.336;2023-07-24T03:58:50;18.30;99.90
14471;DHT22;7321;50.802;4.336;2023-07-24T04:01:16;18.40;99.90
14471;DHT22;7321;50.802;4.336;2023-07-24T04:03:42;18.50;99.90
14471;DHT22;7321;50.802;4.336;2023-07-24T04:06:07;18.50;99.90
14471;DHT22;7321;50.802;4.336;2023-07-24T04:08:33;18.60;99.90
14471;DHT22;7321;50.802;4.336;2023-07-24T04:10:59;18.60;99.90
14471;DHT22;7321;50.802;4.336;2023-07-24T04:13:25;18.60;99.90
14471;DHT22;7321;50.802;4.336;2023-07-24T04:15:50;18.60;99.90
14471;DHT22;7321;50.802;4.336;2023-07-24T04:18:16;18.50;99.90
14471;DHT22;7321;50.802;4.336;2023-07-24T04:20:42;18.50;99.90
14471;DHT22;7321;50.802;4.336;2023-07-24T04:23:08;18.40;99.90
14471;DHT22;7321;50.802;4.336;2023-07-24T04:25:34;18.50;99.90
14471;DHT22;7321;50.802;4.336;2023-07-24T04:27:59;18.60;99.90
14471;DHT22;7321;50.802;4.336;2023-07-24T04:30:25;18.60;99.90
14471;DHT22;7321;50.802;4.336;2023-07-24T04:32:51;18.60;99.90
14471;DHT22;7321;50.802;4.336;2023-07-24T04:35:17;18.60;99.90
14471;DHT22;7321;50.802;4.336;2023-07-24T04:37:42;18.60;99.90
14471;DHT22;7321;50.802;4.336;2023-07-24T04:40:09;18.70;99.90
14471;DHT22;7321;50.802;4.336;2023-07-24T04:42:34;18.70;99.90
14471;DHT22;7321;50.802;4.336;2023-07-24T04:45:00;18.90;99.90
14471;DHT22;7321;50.802;4.336;2023-07-24T04:47:26;19.00;99.90
14471;DHT22;7321;50.802;4.336;2023-07-24T04:49:52;18.90;99.90
14471;DHT22;7321;50.802;4.336;2023-07-24T04:52:18;18.80;99.90
14471;DHT22;7321;50.802;4.336;2023-07-24T04:54:43;18.70;99.90
14471;DHT22;7321;50.802;4.336;2023-07-24T04:57:09;18.70;99.90
14471;DHT22;7321;50.802;4.336;2023-07-24T04:59:35;18.80;99.90
14471;DHT22;7321;50.802;4.336;2023-07-24T05:02:01;18.90;99.90
14471;DHT22;7321;50.802;4.336;2023-07-24T05:04:26;19.00;99.90
14471;DHT22;7321;50.802;4.336;2023-07-24T05:06:52;19.00;99.90
14471;DHT22;7321;50.802;4.336;2023-07-24T05:09:18;18.90;99.90
14471;DHT22;7321;50.802;4.336;2023-07-24T05:11:44;18.90;99.90
14471;DHT22;7321;50.802;4.336;2023-07-24T05:14:10;19.00;99.90
14471;DHT22;7321;50.802;4.336;2023-07-24T05:16:36;19.20;99.90
14471;DHT22;7321;50.802;4.336;2023-07-24T05:19:02;19.30;99.90
14471;DHT22;7321;50.802;4.336;2023-07-24T05:21:28;19.20;99.90
14471;DHT22;7321;50.802;4.336;2023-07-24T05:23:54;19.30;99.90
14471;DHT22;7321;50.802;4.336;2023-07-24T05:26:20;19.20;99.90
14471;DHT22;7321;50.802;4.336;2023-07-24T05:28:48;19.10;99.90
14471;DHT22;7321;50.802;4.336;2023-07-24T05:31:14;19.00;99.90
14471;DHT22;7321;50.802;4.336;2023-07-24T05:33:40;19.00;99.90
14471;DHT22;7321;50.802;4.336;2023-07-24T05:36:06;18.90;99.90
14471;DHT22;7321;50.802;4.336;2023-07-24T05:38:32;19.00;99.90
14471;DHT22;7321;50.802;4.336;2023-07-24T05:40:59;19.20;99.90
14471;DHT22;7321;50.802;4.336;2023-07-24T05:43:26;19.10;99.90
14471;DHT22;7321;50.802;4.336;2023-07-24T05:45:53;19.10;99.90
14471;DHT22;7321;50.802;4.336;2023-07-24T05:48:19;19.10;99.90
14471;DHT22;7321;50.802;4.336;2023-07-24T05:50:44;19.20;99.90
14471;DHT22;7321;50.802;4.336;2023-07-24T05:53:10;19.20;99.90
14471;DHT22;7321;50.802;4.336;2023-07-24T05:55:36;19.40;99.90
14471;DHT22;7321;50.802;4.336;2023-07-24T05:58:02;19.30;99.90
14471;DHT22;7321;50.802;4.336;2023-07-24T06:00:28;19.40;99.90
14471;DHT22;7321;50.802;4.336;2023-07-24T06:02:54;19.40;99.90
14471;DHT22;7321;50.802;4.336;2023-07-24T06:05:23;19.30;99.90
14471;DHT22;7321;50.802;4.336;2023-07-24T06:07:51;19.30;99.90
14471;DHT22;7321;50.802;4.336;2023-07-24T06:10:17;19.30;99.90
14471;DHT22;7321;50.802;4.336;2023-07-24T06:12:51;19.20;99.90
14471;DHT22;7321;50.802;4.336;2023-07-24T06:15:17;19.10;99.90
14471;DHT22;7321;50.802;4.336;2023-07-24T06:17:43;19.20;99.90
14471;DHT22;7321;50.802;4.336;2023-07-24T06:20:09;19.20;99.90
14471;DHT22;7321;50.802;4.336;2023-07-24T06:22:34;19.50;99.90
14471;DHT22;7321;50.802;4.336;2023-07-24T06:25:00;19.60;99.90
14471;DHT22;7321;50.802;4.336;2023-07-24T06:27:26;19.80;99.90
14471;DHT22;7321;50.802;4.336;2023-07-24T06:29:52;20.10;99.90
14471;DHT22;7321;50.802;4.336;2023-07-24T06:32:18;20.00;99.90
14471;DHT22;7321;50.802;4.336;2023-07-24T06:34:43;19.90;99.90
14471;DHT22;7321;50.802;4.336;2023-07-24T06:37:09;20.00;99.90
14471;DHT22;7321;50.802;4.336;2023-07-24T06:39:36;20.10;99.90
14471;DHT22;7321;50.802;4.336;2023-07-24T06:42:02;20.20;99.90
14471;DHT22;7321;50.802;4.336;2023-07-24T06:44:28;20.30;99.90
14471;DHT22;7321;50.802;4.336;2023-07-24T06:46:54;20.40;99.90
14471;DHT22;7321;50.802;4.336;2023-07-24T06:49:20;20.20;99.90
14471;DHT22;7321;50.802;4.336;2023-07-24T06:51:46;20.30;99.90
14471;DHT22;7321;50.802;4.336;2023-07-24T06:54:12;20.10;99.90
14471;DHT22;7321;50.802;4.336;2023-07-24T06:56:38;19.90;99.90
14471;DHT22;7321;50.802;4.336;2023-07-24T06:59:03;20.00;99.90
14471;DHT22;7321;50.802;4.336;2023-07-24T07:01:29;20.00;99.90
14471;DHT22;7321;50.802;4.336;2023-07-24T07:03:55;19.90;99.90
14471;DHT22;7321;50.802;4.336;2023-07-24T07:06:21;20.20;99.90
14471;DHT22;7321;50.802;4.336;2023-07-24T07:08:50;20.40;99.90
14471;DHT22;7321;50.802;4.336;2023-07-24T07:11:16;20.50;99.90
14471;DHT22;7321;50.802;4.336;2023-07-24T07:13:42;20.50;99.90
14471;DHT22;7321;50.802;4.336;2023-07-24T07:16:07;20.40;99.90
14471;DHT22;7321;50.802;4.336;2023-07-24T07:18:33;20.30;99.90
14471;DHT22;7321;50.802;4.336;2023-07-24T07:20:59;20.60;99.90
14471;DHT22;7321;50.802;4.336;2023-07-24T07:23:25;20.30;99.90
14471;DHT22;7321;50.802;4.336;2023-07-24T07:25:51;20.30;99.90
14471;DHT22;7321;50.802;4.336;2023-07-24T07:28:17;20.50;99.90
14471;DHT22;7321;50.802;4.336;2023-07-24T07:30:44;20.50;99.90
14471;DHT22;7321;50.802;4.336;2023-07-24T07:33:10;20.70;99.90
14471;DHT22;7321;50.802;4.336;2023-07-24T07:35:36;20.50;99.90
14471;DHT22;7321;50.802;4.336;2023-07-24T07:38:02;20.40;99.90
14471;DHT22;7321;50.802;4.336;2023-07-24T07:40:29;20.50;99.90
14471;DHT22;7321;50.802;4.336;2023-07-24T07:42:56;20.70;99.90
14471;DHT22;7321;50.802;4.336;2023-07-24T07:45:25;20.70;99.90
14471;DHT22;7321;50.802;4.336;2023-07-24T07:47:51;20.60;99.90
14471;DHT22;7321;50.802;4.336;2023-07-24T07:50:18;20.80;99.90
14471;DHT22;7321;50.802;4.336;2023-07-24T07:52:44;20.90;99.90
14471;DHT22;7321;50.802;4.336;2023-07-24T07:55:10;21.30;99.90
14471;DHT22;7321;50.802;4.336;2023-07-24T07:57:37;21.40;99.90
14471;DHT22;7321;50.802;4.336;2023-07-24T08:00:06;21.70;99.90
14471;DHT22;7321;50.802;4.336;2023-07-24T08:02:33;21.90;99.90
14471;DHT22;7321;50.802;4.336;2023-07-24T08:05:10;21.70;99.90
14471;DHT22;7321;50.802;4.336;2023-07-24T08:07:36;21.80;99.90
14471;DHT22;7321;50.802;4.336;2023-07-24T08:10:03;21.90;99.90
14471;DHT22;7321;50.802;4.336;2023-07-24T08:12:32;21.60;99.90
14471;DHT22;7321;50.802;4.336;2023-07-24T08:15:01;21.00;99.90
14471;DHT22;7321;50.802;4.336;2023-07-24T08:17:27;20.70;99.90
14471;DHT22;7321;50.802;4.336;2023-07-24T08:19:53;20.50;99.90
14471;DHT22;7321;50.802;4.336;2023-07-24T08:22:19;20.50;99.90
14471;DHT22;7321;50.802;4.336;2023-07-24T08:24:45;20.30;99.90
14471;DHT22;7321;50.802;4.336;2023-07-24T08:27:14;20.30;99.90
14471;DHT22;7321;50.802;4.336;2023-07-24T08:29:40;20.20;99.90
14471;DHT22;7321;50.802;4.336;2023-07-24T08:32:06;20.00;99.90
14471;DHT22;7321;50.802;4.336;2023-07-24T08:34:32;20.20;99.90
14471;DHT22;7321;50.802;4.336;2023-07-24T08:36:58;20.10;99.90
14471;DHT22;7321;50.802;4.336;2023-07-24T08:39:24;19.70;99.90
14471;DHT22;7321;50.802;4.336;2023-07-24T08:41:58;19.80;99.90
14471;DHT22;7321;50.802;4.336;2023-07-24T08:44:28;19.90;99.90
14471;DHT22;7321;50.802;4.336;2023-07-24T08:46:57;20.10;99.90
14471;DHT22;7321;50.802;4.336;2023-07-24T08:49:30;20.20;99.90
14471;DHT22;7321;50.802;4.336;2023-07-24T08:52:01;20.10;99.90
14471;DHT22;7321;50.802;4.336;2023-07-24T08:54:30;19.90;99.90
14471;DHT22;7321;50.802;4.336;2023-07-24T08:56:56;19.80;99.90
14471;DHT22;7321;50.802;4.336;2023-07-24T08:59:28;19.80;99.90
14471;DHT22;7321;50.802;4.336;2023-07-24T09:01:58;19.80;99.90
14471;DHT22;7321;50.802;4.336;2023-07-24T09:04:24;19.60;99.90
14471;DHT22;7321;50.802;4.336;2023-07-24T09:06:50;19.60;99.90
14471;DHT22;7321;50.802;4.336;2023-07-24T09:09:17;19.50;99.90
14471;DHT22;7321;50.802;4.336;2023-07-24T09:12:01;19.50;99.90
14471;DHT22;7321;50.802;4.336;2023-07-24T09:14:28;19.60;99.90
14471;DHT22;7321;50.802;4.336;2023-07-24T09:17:08;19.50;99.90
14471;DHT22;7321;50.802;4.336;2023-07-24T09:19:35;19.60;99.90
14471;DHT22;7321;50.802;4.336;2023-07-24T09:22:15;19.70;99.90
14471;DHT22;7321;50.802;4.336;2023-07-24T09:24:54;19.90;99.90
14471;DHT22;7321;50.802;4.336;2023-07-24T09:27:30;20.00;99.90
14471;DHT22;7321;50.802;4.336;2023-07-24T09:29:56;20.10;99.90
14471;DHT22;7321;50.802;4.336;2023-07-24T09:32:24;20.10;99.90
14471;DHT22;7321;50.802;4.336;2023-07-24T09:34:50;20.10;99.90
14471;DHT22;7321;50.802;4.336;2023-07-24T09:39:50;20.40;99.90
14471;DHT22;7321;50.802;4.336;2023-07-24T09:42:16;20.40;99.90
14471;DHT22;7321;50.802;4.336;2023-07-24T09:44:45;20.70;99.90
14471;DHT22;7321;50.802;4.336;2023-07-24T09:47:10;20.50;99.90
14471;DHT22;7321;50.802;4.336;2023-07-24T09:49:39;20.60;99.90
14471;DHT22;7321;50.802;4.336;2023-07-24T09:52:09;20.70;99.90
14471;DHT22;7321;50.802;4.336;2023-07-24T09:55:04;20.70;99.90
14471;DHT22;7321;50.802;4.336;2023-07-24T09:57:28;20.70;99.90
14471;DHT22;7321;50.802;4.336;2023-07-24T09:59:56;20.70;99.90
14471;DHT22;7321;50.802;4.336;2023-07-24T10:02:44;20.50;99.90
14471;DHT22;7321;50.802;4.336;2023-07-24T10:05:09;20.60;99.90
14471;DHT22;7321;50.802;4.336;2023-07-24T10:07:39;20.70;99.90
14471;DHT22;7321;50.802;4.336;2023-07-24T10:10:08;20.70;99.90
14471;DHT22;7321;50.802;4.336;2023-07-24T10:12:34;20.40;99.90
14471;DHT22;7321;50.802;4.336;2023-07-24T10:15:05;20.70;99.90
14471;DHT22;7321;50.802;4.336;2023-07-24T10:17:39;21.10;99.90
14471;DHT22;7321;50.802;4.336;2023-07-24T10:20:07;21.40;99.90
14471;DHT22;7321;50.802;4.336;2023-07-24T10:22:44;21.60;99.90
14471;DHT22;7321;50.802;4.336;2023-07-24T10:25:11;21.60;99.90
14471;DHT22;7321;50.802;4.336;2023-07-24T10:27:46;21.50;99.90
14471;DHT22;7321;50.802;4.336;2023-07-24T10:30:15;21.90;99.90
14471;DHT22;7321;50.802;4.336;2023-07-24T10:32:48;22.30;99.90
14471;DHT22;7321;50.802;4.336;2023-07-24T10:35:15;22.40;99.90
14471;DHT22;7321;50.802;4.336;2023-07-24T10:37:46;22.10;99.90
14471;DHT22;7321;50.802;4.336;2023-07-24T10:40:29;21.80;99.90
14471;DHT22;7321;50.802;4.336;2023-07-24T10:43:28;22.10;99.90
14471;DHT22;7321;50.802;4.336;2023-07-24T10:45:57;22.40;99.90
14471;DHT22;7321;50.802;4.336;2023-07-24T10:48:25;22.30;99.90
14471;DHT22;7321;50.802;4.336;2023-07-24T10:50:54;22.50;99.90
14471;DHT22;7321;50.802;4.336;2023-07-24T10:53:22;22.40;99.90
14471;DHT22;7321;50.802;4.336;2023-07-24T10:55:52;22.60;99.90
14471;DHT22;7321;50.802;4.336;2023-07-24T10:58:18;22.40;99.90
14471;DHT22;7321;50.802;4.336;2023-07-24T11:00:57;22.50;99.90
14471;DHT22;7321;50.802;4.336;2023-07-24T11:03:26;22.60;99.90
14471;DHT22;7321;50.802;4.336;2023-07-24T11:06:27;22.80;99.90
14471;DHT22;7321;50.802;4.336;2023-07-24T11:08:55;22.80;99.90
14471;DHT22;7321;50.802;4.336;2023-07-24T11:11:33;23.00;99.90
14471;DHT22;7321;50.802;4.336;2023-07-24T11:14:03;23.10;99.90
14471;DHT22;7321;50.802;4.336;2023-07-24T11:16:30;23.10;99.90
14471;DHT22;7321;50.802;4.336;2023-07-24T11:18:57;22.90;99.90
14471;DHT22;7321;50.802;4.336;2023-07-24T11:21:23;23.00;99.90
14471;DHT22;7321;50.802;4.336;2023-07-24T11:23:53;22.70;99.90
14471;DHT22;7321;50.802;4.336;2023-07-24T11:26:20;22.70;99.90
14471;DHT22;7321;50.802;4.336;2023-07-24T11:28:54;22.70;99.90
14471;DHT22;7321;50.802;4.336;2023-07-24T11:31:36;22.70;99.90
14471;DHT22;7321;50.802;4.336;2023-07-24T11:34:02;22.60;99.90
14471;DHT22;7321;50.802;4.336;2023-07-24T11:36:28;22.70;99.90
14471;DHT22;7321;50.802;4.336;2023-07-24T11:38:54;23.00;99.90
14471;DHT22;7321;50.802;4.336;2023-07-24T11:41:22;23.10;99.90
14471;DHT22;7321;50.802;4.336;2023-07-24T11:43:50;23.10;99.90
14471;DHT22;7321;50.802;4.336;2023-07-24T11:46:29;23.40;99.90
14471;DHT22;7321;50.802;4.336;2023-07-24T11:48:58;23.30;99.90
14471;DHT22;7321;50.802;4.336;2023-07-24T11:51:30;23.60;99.90
14471;DHT22;7321;50.802;4.336;2023-07-24T11:54:08;23.70;99.90
14471;DHT22;7321;50.802;4.336;2023-07-24T11:56:39;23.70;99.90
14471;DHT22;7321;50.802;4.336;2023-07-24T11:59:12;23.70;99.90
14471;DHT22;7321;50.802;4.336;2023-07-24T12:01:39;23.60;99.90
14471;DHT22;7321;50.802;4.336;2023-07-24T12:04:18;23.50;99.90
14471;DHT22;7321;50.802;4.336;2023-07-24T12:06:47;23.60;99.90
14471;DHT22;7321;50.802;4.336;2023-07-24T12:09:21;23.60;99.90
14471;DHT22;7321;50.802;4.336;2023-07-24T12:11:52;23.70;99.90
14471;DHT22;7321;50.802;4.336;2023-07-24T12:14:21;23.30;99.90
14471;DHT22;7321;50.802;4.336;2023-07-24T12:17:02;22.80;99.90
14471;DHT22;7321;50.802;4.336;2023-07-24T12:19:41;22.80;99.90
14471;DHT22;7321;50.802;4.336;2023-07-24T12:22:16;23.00;99.90
14471;DHT22;7321;50.802;4.336;2023-07-24T12:24:46;23.10;99.90
14471;DHT22;7321;50.802;4.336;2023-07-24T12:27:19;23.20;99.90
14471;DHT22;7321;50.802;4.336;2023-07-24T12:29:45;23.40;99.90
14471;DHT22;7321;50.802;4.336;2023-07-24T12:32:14;23.10;99.90
14471;DHT22;7321;50.802;4.336;2023-07-24T12:34:40;23.20;99.90
14471;DHT22;7321;50.802;4.336;2023-07-24T12:37:29;23.00;99.90
14471;DHT22;7321;50.802;4.336;2023-07-24T12:39:55;22.30;99.90
14471;DHT22;7321;50.802;4.336;2023-07-24T12:42:24;22.30;99.90
14471;DHT22;7321;50.802;4.336;2023-07-24T12:44:50;22.40;99.90
14471;DHT22;7321;50.802;4.336;2023-07-24T12:47:16;22.80;99.90
14471;DHT22;7321;50.802;4.336;2023-07-24T12:49:42;23.30;99.90
14471;DHT22;7321;50.802;4.336;2023-07-24T12:52:08;23.70;99.90
14471;DHT22;7321;50.802;4.336;2023-07-24T12:54:36;24.10;99.90
14471;DHT22;7321;50.802;4.336;2023-07-24T12:57:05;23.80;99.90
14471;DHT22;7321;50.802;4.336;2023-07-24T12:59:31;23.60;99.90
14471;DHT22;7321;50.802;4.336;2023-07-24T13:01:57;23.00;99.90
14471;DHT22;7321;50.802;4.336;2023-07-24T13:04:23;22.80;99.90
14471;DHT22;7321;50.802;4.336;2023-07-24T13:06:49;22.60;99.90
14471;DHT22;7321;50.802;4.336;2023-07-24T13:09:15;22.50;99.90
14471;DHT22;7321;50.802;4.336;2023-07-24T13:11:41;22.00;99.90
14471;DHT22;7321;50.802;4.336;2023-07-24T13:14:07;21.90;99.90
14471;DHT22;7321;50.802;4.336;2023-07-24T13:16:33;21.90;99.90
14471;DHT22;7321;50.802;4.336;2023-07-24T13:18:59;21.90;99.90
14471;DHT22;7321;50.802;4.336;2023-07-24T13:21:25;22.00;99.90
14471;DHT22;7321;50.802;4.336;2023-07-24T13:23:51;21.80;99.90
14471;DHT22;7321;50.802;4.336;2023-07-24T13:26:17;21.90;99.90
14471;DHT22;7321;50.802;4.336;2023-07-24T13:28:43;22.10;99.90
14471;DHT22;7321;50.802;4.336;2023-07-24T13:31:19;22.30;99.90
14471;DHT22;7321;50.802;4.336;2023-07-24T13:33:45;22.30;99.90
14471;DHT22;7321;50.802;4.336;2023-07-24T13:36:12;22.40;99.90
14471;DHT22;7321;50.802;4.336;2023-07-24T13:38:39;22.60;99.90
14471;DHT22;7321;50.802;4.336;2023-07-24T13:41:05;22.70;99.90
14471;DHT22;7321;50.802;4.336;2023-07-24T13:43:33;22.80;99.90
14471;DHT22;7321;50.802;4.336;2023-07-24T13:45:59;23.20;99.90
14471;DHT22;7321;50.802;4.336;2023-07-24T13:48:27;23.50;99.90
14471;DHT22;7321;50.802;4.336;2023-07-24T13:50:53;23.70;99.90
14471;DHT22;7321;50.802;4.336;2023-07-24T13:53:20;23.90;99.90
14471;DHT22;7321;50.802;4.336;2023-07-24T13:55:46;24.00;99.90
14471;DHT22;7321;50.802;4.336;2023-07-24T13:58:12;23.80;99.90
14471;DHT22;7321;50.802;4.336;2023-07-24T14:00:37;23.50;99.90
14471;DHT22;7321;50.802;4.336;2023-07-24T14:03:03;23.20;99.90
14471;DHT22;7321;50.802;4.336;2023-07-24T14:05:29;23.20;99.90
14471;DHT22;7321;50.802;4.336;2023-07-24T14:07:55;23.30;99.90
14471;DHT22;7321;50.802;4.336;2023-07-24T14:10:21;23.40;99.90
14471;DHT22;7321;50.802;4.336;2023-07-24T14:12:47;23.70;99.90
14471;DHT22;7321;50.802;4.336;2023-07-24T14:15:13;23.70;99.90
14471;DHT22;7321;50.802;4.336;2023-07-24T14:17:39;23.90;99.90
14471;DHT22;7321;50.802;4.336;2023-07-24T14:20:05;23.70;99.90
14471;DHT22;7321;50.802;4.336;2023-07-24T14:22:32;23.50;99.90
14471;DHT22;7321;50.802;4.336;2023-07-24T14:24:58;23.30;99.90
14471;DHT22;7321;50.802;4.336;2023-07-24T14:27:23;23.30;99.90
14471;DHT22;7321;50.802;4.336;2023-07-24T14:29:49;23.40;99.90
14471;DHT22;7321;50.802;4.336;2023-07-24T14:32:15;23.40;99.90
14471;DHT22;7321;50.802;4.336;2023-07-24T14:34:42;23.30;99.90
14471;DHT22;7321;50.802;4.336;2023-07-24T14:37:07;23.40;99.90
14471;DHT22;7321;50.802;4.336;2023-07-24T14:39:33;23.30;99.90
14471;DHT22;7321;50.802;4.336;2023-07-24T14:41:59;23.10;99.90
14471;DHT22;7321;50.802;4.336;2023-07-24T14:44:25;23.10;99.90
14471;DHT22;7321;50.802;4.336;2023-07-24T14:46:51;23.40;99.90
14471;DHT22;7321;50.802;4.336;2023-07-24T14:49:17;23.30;99.90
14471;DHT22;7321;50.802;4.336;2023-07-24T14:51:51;23.40;99.90
14471;DHT22;7321;50.802;4.336;2023-07-24T14:54:17;23.50;99.90
14471;DHT22;7321;50.802;4.336;2023-07-24T14:56:43;23.40;99.90
14471;DHT22;7321;50.802;4.336;2023-07-24T14:59:09;23.30;99.90
14471;DHT22;7321;50.802;4.336;2023-07-24T15:01:54;23.20;99.90
14471;DHT22;7321;50.802;4.336;2023-07-24T15:04:21;22.60;99.90
14471;DHT22;7321;50.802;4.336;2023-07-24T15:06:47;21.70;99.90
14471;DHT22;7321;50.802;4.336;2023-07-24T15:09:19;21.00;99.90
14471;DHT22;7321;50.802;4.336;2023-07-24T15:11:45;20.50;99.90
14471;DHT22;7321;50.802;4.336;2023-07-24T15:14:11;20.10;99.90
14471;DHT22;7321;50.802;4.336;2023-07-24T15:16:43;19.80;99.90
14471;DHT22;7321;50.802;4.336;2023-07-24T15:19:15;19.60;99.90
14471;DHT22;7321;50.802;4.336;2023-07-24T15:21:43;19.10;99.90
14471;DHT22;7321;50.802;4.336;2023-07-24T15:24:10;18.90;99.90
14471;DHT22;7321;50.802;4.336;2023-07-24T15:26:36;18.90;99.90
14471;DHT22;7321;50.802;4.336;2023-07-24T15:29:05;18.30;99.90
14471;DHT22;7321;50.802;4.336;2023-07-24T15:31:36;17.70;99.90
14471;DHT22;7321;50.802;4.336;2023-07-24T15:34:09;17.50;99.90
14471;DHT22;7321;50.802;4.336;2023-07-24T15:36:35;17.40;99.90
14471;DHT22;7321;50.802;4.336;2023-07-24T15:39:07;17.40;99.90
14471;DHT22;7321;50.802;4.336;2023-07-24T15:41:33;17.70;99.90
14471;DHT22;7321;50.802;4.336;2023-07-24T15:43:59;18.00;99.90
14471;DHT22;7321;50.802;4.336;2023-07-24T15:46:28;18.40;99.90
14471;DHT22;7321;50.802;4.336;2023-07-24T15:48:57;18.60;99.90
14471;DHT22;7321;50.802;4.336;2023-07-24T15:51:25;18.80;99.90